createdAt,value
2018-02-05T00:02:02.140Z,31.47
2018-02-05T00:04:29.809Z,32.10
2018-02-05T00:06:57.409Z,33.37
2018-02-05T00:09:24.976Z,33.07
2018-02-05T00:11:52.542Z,33.27
2018-02-05T00:14:20.072Z,30.90
2018-02-05T00:16:47.607Z,33.23
2018-02-05T00:19:15.163Z,32.30
2018-02-05T00:21:42.936Z,32.60
2018-02-05T00:24:10.510Z,31.50
2018-02-05T00:26:38.364Z,31.03
2018-02-05T00:29:05.884Z,32.17
2018-02-05T00:31:33.504Z,32.50
2018-02-05T00:34:01.043Z,31.77
2018-02-05T00:36:28.557Z,32.00
2018-02-05T00:38:56.103Z,31.43
2018-02-05T00:41:23.862Z,31.77
2018-02-05T00:43:51.686Z,30.70
2018-02-05T00:46:19.213Z,30.17
2018-02-05T00:48:46.977Z,30.33
2018-02-05T00:51:14.519Z,29.67
2018-02-05T00:53:42.146Z,29.87
2018-02-05T00:56:09.682Z,29.87
2018-02-05T00:58:37.193Z,30.47
2018-02-05T01:01:04.756Z,30.63
2018-02-05T01:03:32.286Z,29.73
2018-02-05T01:05:59.878Z,28.33
2018-02-05T01:08:27.534Z,29.20
2018-02-05T01:10:55.097Z,31.10
2018-02-05T01:13:22.626Z,28.33
2018-02-05T01:15:50.155Z,29.87
2018-02-05T01:18:17.715Z,29.20
2018-02-05T01:20:45.321Z,30.33
2018-02-05T01:23:12.867Z,31.20
2018-02-05T01:25:40.421Z,30.60
2018-02-05T01:28:08.403Z,30.53
2018-02-05T01:30:36.010Z,31.70
2018-02-05T01:33:03.536Z,30.87
2018-02-05T01:35:31.303Z,27.83
2018-02-05T01:37:58.859Z,30.13
2018-02-05T01:40:26.386Z,30.40
2018-02-05T01:42:53.917Z,29.20
2018-02-05T01:45:21.478Z,32.17
2018-02-05T01:47:49.039Z,30.13
2018-02-05T01:50:16.628Z,30.80
2018-02-05T01:52:44.166Z,30.33
2018-02-05T01:55:11.784Z,29.77
2018-02-05T01:57:39.321Z,28.53
2018-02-05T02:00:07.407Z,30.00
2018-02-05T02:02:35.010Z,29.63
2018-02-05T02:05:02.557Z,29.33
2018-02-05T02:07:30.121Z,29.77
2018-02-05T02:09:57.732Z,29.63
2018-02-05T02:12:25.270Z,30.43
2018-02-05T02:14:53.076Z,28.37
2018-02-05T02:17:20.661Z,30.60
2018-02-05T02:19:48.284Z,28.93
2018-02-05T02:22:15.855Z,28.53
2018-02-05T02:24:43.411Z,27.00
2018-02-05T02:27:10.938Z,28.93
2018-02-05T02:29:38.468Z,29.17
2018-02-05T02:32:06.019Z,28.70
2018-02-05T02:34:33.570Z,28.13
2018-02-05T02:37:01.136Z,28.93
2018-02-05T02:39:28.680Z,27.90
2018-02-05T02:41:56.247Z,28.10
2018-02-05T02:44:23.793Z,29.93
2018-02-05T02:46:51.356Z,28.07
2018-02-05T02:49:18.908Z,29.07
2018-02-05T02:51:46.428Z,26.90
2018-02-05T02:54:13.961Z,29.07
2018-02-05T02:56:41.534Z,28.37
2018-02-05T02:59:09.166Z,26.30
2018-02-05T03:01:36.753Z,25.80
2018-02-05T03:04:04.288Z,27.40
2018-02-05T03:06:31.809Z,28.03
2018-02-05T03:08:59.725Z,27.93
2018-02-05T03:11:27.285Z,26.83
2018-02-05T03:13:54.798Z,26.83
2018-02-05T03:16:22.723Z,26.10
2018-02-05T03:18:50.254Z,26.10
2018-02-05T03:21:17.811Z,25.90
2018-02-05T03:23:45.420Z,27.40
2018-02-05T03:26:13.238Z,26.33
2018-02-05T03:28:40.900Z,25.07
2018-02-05T03:31:08.456Z,24.80
2018-02-05T03:33:35.991Z,24.13
2018-02-05T03:36:03.596Z,24.50
2018-02-05T03:38:31.105Z,23.67
2018-02-05T03:40:58.939Z,22.90
2018-02-05T03:43:26.504Z,23.77
2018-02-05T03:45:54.052Z,22.83
2018-02-05T03:48:21.582Z,24.60
2018-02-05T03:50:49.113Z,23.50
2018-02-05T03:53:16.714Z,21.97
2018-02-05T03:55:44.260Z,23.60
2018-02-05T03:58:11.802Z,23.23
2018-02-05T04:00:39.376Z,23.30
2018-02-05T04:03:06.936Z,22.80
2018-02-05T04:05:34.741Z,24.20
2018-02-05T04:08:02.332Z,23.23
2018-02-05T04:10:29.873Z,22.13
2018-02-05T04:12:57.409Z,22.40
2018-02-05T04:15:24.997Z,22.70
2018-02-05T04:17:52.533Z,21.47
2018-02-05T04:20:20.080Z,19.93
2018-02-05T04:22:47.632Z,20.63
2018-02-05T04:25:15.166Z,21.97
2018-02-05T04:27:42.727Z,20.43
2018-02-05T04:30:10.381Z,22.03
2018-02-05T04:32:37.921Z,21.93
2018-02-05T04:35:05.571Z,20.50
2018-02-05T04:37:33.444Z,20.77
2018-02-05T04:40:01.005Z,21.60
2018-02-05T04:42:28.586Z,19.70
2018-02-05T04:44:56.096Z,20.67
2018-02-05T04:47:23.648Z,20.07
2018-02-05T04:49:51.228Z,20.60
2018-02-05T04:52:18.808Z,19.43
2018-02-05T04:54:46.328Z,19.47
2018-02-05T04:57:13.869Z,19.37
2018-02-05T04:59:41.420Z,18.90
2018-02-05T05:02:09.005Z,20.23
2018-02-05T05:04:36.607Z,19.00
2018-02-05T05:07:04.160Z,19.07
2018-02-05T05:09:31.775Z,19.70
2018-02-05T05:11:59.320Z,18.40
2018-02-05T05:14:26.865Z,18.37
2018-02-05T05:16:54.386Z,19.30
2018-02-05T05:19:21.983Z,19.23
2018-02-05T05:21:49.577Z,17.97
2018-02-05T05:24:17.104Z,18.87
2018-02-05T05:26:44.672Z,19.70
2018-02-05T05:29:12.213Z,19.40
2018-02-05T05:31:39.764Z,17.77
2018-02-05T05:34:07.350Z,17.87
2018-02-05T05:36:35.270Z,18.80
2018-02-05T05:39:02.838Z,18.00
2018-02-05T05:41:30.401Z,19.03
2018-02-05T05:43:58.199Z,18.77
2018-02-05T05:46:25.715Z,18.00
2018-02-05T05:48:53.287Z,17.87
2018-02-05T05:51:21.082Z,18.40
2018-02-05T05:53:48.597Z,17.70
2018-02-05T05:56:16.202Z,19.27
2018-02-05T05:58:43.764Z,18.47
2018-02-05T06:01:11.321Z,18.23
2018-02-05T06:03:38.880Z,17.97
2018-02-05T06:06:07.122Z,17.60
2018-02-05T06:08:34.718Z,17.43
2018-02-05T06:11:02.242Z,17.80
2018-02-05T06:13:29.790Z,16.23
2018-02-05T06:15:57.350Z,15.73
2018-02-05T06:18:24.877Z,17.10
2018-02-05T06:20:52.405Z,17.17
2018-02-05T06:23:20.010Z,17.20
2018-02-05T06:25:47.537Z,15.77
2018-02-05T06:28:17.594Z,16.43
2018-02-05T06:30:45.118Z,16.77
2018-02-05T06:33:12.694Z,15.10
2018-02-05T06:35:40.237Z,16.50
2018-02-05T06:38:08.114Z,15.80
2018-02-05T06:40:35.646Z,17.13
2018-02-05T06:43:03.196Z,14.33
2018-02-05T06:45:30.756Z,14.23
2018-02-05T06:47:58.397Z,14.70
2018-02-05T06:50:37.715Z,16.17
2018-02-05T06:53:17.097Z,14.00
2018-02-05T06:55:47.619Z,14.87
2018-02-05T06:58:15.183Z,15.37
2018-02-05T07:00:43.090Z,13.70
2018-02-05T07:03:10.637Z,15.30
2018-02-05T07:05:38.222Z,15.87
2018-02-05T07:08:05.749Z,14.03
2018-02-05T07:10:33.318Z,14.57
2018-02-05T07:13:00.866Z,15.40
2018-02-05T07:15:28.397Z,14.40
2018-02-05T07:17:55.982Z,14.90
2018-02-05T07:20:23.884Z,14.50
2018-02-05T07:22:51.414Z,14.93
2018-02-05T07:25:18.996Z,14.33
2018-02-05T07:27:46.625Z,13.33
2018-02-05T07:30:14.156Z,15.00
2018-02-05T07:32:41.699Z,15.53
2018-02-05T07:35:09.220Z,14.00
2018-02-05T07:37:36.894Z,14.03
2018-02-05T07:40:04.569Z,13.67
2018-02-05T07:42:32.100Z,15.00
2018-02-05T07:44:59.685Z,15.00
2018-02-05T07:47:27.671Z,14.50
2018-02-05T07:49:55.291Z,15.87
2018-02-05T07:52:22.849Z,13.60
2018-02-05T07:54:50.414Z,14.20
2018-02-05T07:57:18.664Z,14.00
2018-02-05T07:59:46.209Z,14.10
2018-02-05T08:02:13.725Z,14.40
2018-02-05T08:04:41.324Z,13.67
2018-02-05T08:07:08.849Z,15.33
2018-02-05T08:09:36.400Z,14.70
2018-02-05T08:12:03.947Z,13.30
2018-02-05T08:14:31.768Z,13.03
2018-02-05T08:16:59.334Z,13.13
2018-02-05T08:19:27.190Z,12.57
2018-02-05T08:21:54.734Z,13.20
2018-02-05T08:24:22.297Z,12.87
2018-02-05T08:26:49.851Z,12.37
2018-02-05T08:29:17.740Z,13.37
2018-02-05T08:31:45.299Z,12.40
2018-02-05T08:34:12.858Z,12.60
2018-02-05T08:36:40.622Z,13.20
2018-02-05T08:39:08.490Z,12.80
2018-02-05T08:41:36.086Z,12.53
2018-02-05T08:44:03.632Z,12.20
2018-02-05T08:46:31.149Z,11.60
2018-02-05T08:48:58.750Z,12.50
2018-02-05T08:51:26.282Z,13.03
2018-02-05T08:53:53.899Z,12.40
2018-02-05T08:56:21.461Z,11.70
2018-02-05T08:58:49.047Z,11.20
2018-02-05T09:01:16.858Z,11.87
2018-02-05T09:03:44.476Z,11.27
2018-02-05T09:06:12.166Z,11.50
2018-02-05T09:08:40.048Z,11.70
2018-02-05T09:11:07.716Z,11.80
2018-02-05T09:13:35.278Z,11.73
2018-02-05T09:16:02.853Z,12.30
2018-02-05T09:18:30.398Z,11.70
2018-02-05T09:20:57.925Z,11.87
2018-02-05T09:23:25.491Z,11.43
2018-02-05T09:25:53.033Z,11.50
2018-02-05T09:28:20.734Z,11.30
2018-02-05T09:30:48.367Z,11.27
2018-02-05T09:33:16.699Z,10.90
2018-02-05T09:35:44.537Z,11.37
2018-02-05T09:38:12.121Z,10.63
2018-02-05T09:40:39.764Z,11.00
2018-02-05T09:43:07.951Z,10.67
2018-02-05T09:45:35.540Z,10.80
2018-02-05T09:48:03.176Z,10.73
2018-02-05T09:50:30.723Z,10.77
2018-02-05T09:52:58.246Z,10.20
2018-02-05T09:55:25.827Z,10.70
2018-02-05T09:57:53.355Z,11.40
2018-02-05T10:00:20.903Z,10.30
2018-02-05T10:02:48.454Z,11.20
2018-02-05T10:05:15.987Z,10.70
2018-02-05T10:07:43.858Z,11.17
2018-02-05T10:10:11.402Z,10.83
2018-02-05T10:12:39.673Z,10.47
2018-02-05T10:15:07.295Z,10.90
2018-02-05T10:17:34.877Z,10.70
2018-02-05T10:20:02.425Z,10.20
2018-02-05T10:22:30.579Z,10.20
2018-02-05T10:24:58.438Z,10.07
2018-02-05T10:27:26.198Z,10.90
2018-02-05T10:29:54.154Z,10.53
2018-02-05T10:32:21.935Z,10.30
2018-02-05T10:34:50.747Z,9.87
2018-02-05T10:37:18.395Z,10.80
2018-02-05T10:39:45.992Z,9.80
2018-02-05T10:42:13.629Z,11.17
2018-02-05T10:44:41.196Z,14.40
2018-02-05T10:47:08.747Z,9.40
2018-02-05T10:49:36.389Z,9.63
2018-02-05T10:52:03.965Z,9.53
2018-02-05T10:54:31.552Z,10.40
2018-02-05T10:56:59.245Z,10.00
2018-02-05T10:59:26.829Z,9.60
2018-02-05T11:01:54.704Z,9.77
2018-02-05T11:04:22.302Z,10.07
2018-02-05T11:06:49.847Z,9.93
2018-02-05T11:09:17.383Z,10.93
2018-02-05T11:11:44.994Z,9.80
2018-02-05T11:14:12.568Z,9.73
2018-02-05T11:16:40.104Z,9.10
2018-02-05T11:19:07.632Z,9.60
2018-02-05T11:21:35.152Z,9.37
2018-02-05T11:24:02.699Z,9.50
2018-02-05T11:26:30.505Z,9.70
2018-02-05T11:28:58.045Z,9.43
2018-02-05T11:31:25.595Z,9.80
2018-02-05T11:33:53.122Z,9.50
2018-02-05T11:36:20.851Z,9.90
2018-02-05T11:38:48.828Z,10.60
2018-02-05T11:41:16.487Z,9.60
2018-02-05T11:43:44.120Z,9.50
2018-02-05T11:46:11.718Z,9.40
2018-02-05T11:48:39.325Z,9.37
2018-02-05T11:51:06.882Z,9.03
2018-02-05T11:53:34.408Z,9.03
2018-02-05T11:56:01.949Z,9.30
2018-02-05T11:58:29.477Z,9.50
2018-02-05T12:00:57.054Z,9.70
2018-02-05T12:03:24.673Z,8.93
2018-02-05T12:05:52.329Z,9.30
2018-02-05T12:08:20.158Z,9.47
2018-02-05T12:10:47.703Z,8.53
2018-02-05T12:13:15.594Z,9.57
2018-02-05T12:15:43.230Z,9.60
2018-02-05T12:18:10.873Z,9.30
2018-02-05T12:20:38.606Z,9.30
2018-02-05T12:23:06.190Z,9.20
2018-02-05T12:25:34.011Z,9.37
2018-02-05T12:28:01.568Z,9.00
2018-02-05T12:30:30.023Z,10.10
2018-02-05T12:32:57.572Z,9.00
2018-02-05T12:35:25.122Z,9.30
2018-02-05T12:37:52.700Z,9.90
2018-02-05T12:40:20.241Z,9.53
2018-02-05T12:42:47.800Z,9.00
2018-02-05T12:45:15.359Z,8.90
2018-02-05T12:47:42.994Z,9.70
2018-02-05T12:50:10.551Z,8.90
2018-02-05T12:52:38.223Z,8.80
2018-02-05T12:55:06.168Z,9.30
2018-02-05T12:57:33.734Z,9.50
2018-02-05T13:00:06.803Z,9.20
2018-02-05T13:02:34.619Z,8.80
2018-02-05T13:07:59.557Z,8.70
2018-02-05T13:10:27.096Z,9.50
2018-02-05T13:12:54.934Z,8.83
2018-02-05T13:15:22.485Z,8.97
2018-02-05T13:17:50.289Z,9.20
2018-02-05T13:20:17.865Z,8.87
2018-02-05T13:22:45.425Z,9.03
2018-02-05T13:25:12.976Z,8.83
2018-02-05T13:27:40.536Z,8.97
2018-02-05T13:30:08.054Z,9.23
2018-02-05T13:32:35.614Z,8.90
2018-02-05T13:35:03.170Z,9.40
2018-02-05T13:37:30.725Z,9.40
2018-02-05T13:39:58.261Z,9.37
2018-02-05T13:42:25.833Z,8.90
2018-02-05T13:44:53.394Z,9.33
2018-02-05T13:47:20.943Z,9.03
2018-02-05T13:49:48.755Z,9.10
2018-02-05T13:52:16.634Z,9.10
2018-02-05T13:54:44.149Z,8.90
2018-02-05T13:57:11.690Z,8.50
2018-02-05T13:59:39.231Z,8.60
2018-02-05T14:02:07.076Z,8.57
2018-02-05T14:04:34.672Z,8.63
2018-02-05T14:07:02.242Z,9.27
2018-02-05T14:09:29.764Z,8.83
2018-02-05T14:11:57.304Z,8.80
2018-02-05T14:14:24.838Z,8.87
2018-02-05T14:16:52.428Z,8.60
2018-02-05T14:19:20.306Z,9.03
2018-02-05T14:21:48.175Z,9.17
2018-02-05T14:24:15.771Z,9.57
2018-02-05T14:26:43.287Z,9.00
2018-02-05T14:29:10.863Z,8.90
2018-02-05T14:31:38.391Z,9.37
2018-02-05T14:34:05.955Z,8.73
2018-02-05T14:36:33.506Z,9.13
2018-02-05T14:39:01.040Z,9.17
2018-02-05T14:41:28.559Z,9.30
2018-02-05T14:43:56.119Z,9.37
2018-02-05T14:46:23.715Z,9.20
2018-02-05T14:48:51.257Z,9.53
2018-02-05T14:51:18.810Z,10.00
2018-02-05T14:53:46.385Z,9.10
2018-02-05T14:56:14.217Z,9.27
2018-02-05T14:58:41.790Z,9.13
2018-02-05T15:01:09.305Z,9.13
2018-02-05T15:03:36.856Z,9.70
2018-02-05T15:06:04.413Z,9.53
2018-02-05T15:08:31.940Z,9.40
2018-02-05T15:10:59.798Z,9.17
2018-02-05T15:13:27.333Z,9.20
2018-02-05T15:15:54.872Z,8.87
2018-02-05T15:18:22.498Z,9.00
2018-02-05T15:20:50.026Z,8.80
2018-02-05T15:23:17.575Z,8.83
2018-02-05T15:25:45.490Z,9.20
2018-02-05T15:28:13.011Z,8.73
2018-02-05T15:30:40.609Z,8.70
2018-02-05T15:33:08.196Z,8.90
2018-02-05T15:35:35.749Z,8.77
2018-02-05T15:38:03.279Z,9.63
2018-02-05T15:40:30.850Z,9.07
2018-02-05T15:42:58.510Z,9.27
2018-02-05T15:45:26.065Z,9.50
2018-02-05T15:47:53.601Z,9.40
2018-02-05T15:50:21.181Z,9.33
2018-02-05T15:52:48.722Z,9.27
2018-02-05T15:55:16.270Z,9.37
2018-02-05T15:57:43.856Z,9.20
2018-02-05T16:00:11.450Z,8.80
2018-02-05T16:02:38.953Z,9.10
2018-02-05T16:05:06.547Z,9.57
2018-02-05T16:07:34.079Z,9.07
2018-02-05T16:10:01.623Z,8.83
2018-02-05T16:12:29.184Z,9.60
2018-02-05T16:14:56.726Z,8.80
2018-02-05T16:17:24.326Z,9.70
2018-02-05T16:19:51.912Z,10.50
2018-02-05T16:22:19.472Z,9.27
2018-02-05T16:24:47.009Z,9.60
2018-02-05T16:27:14.678Z,9.20
2018-02-05T16:29:42.290Z,9.40
2018-02-05T16:32:10.118Z,8.93
2018-02-05T16:34:37.689Z,9.30
2018-02-05T16:37:05.238Z,9.10
2018-02-05T16:39:32.799Z,8.90
2018-02-05T16:42:00.577Z,9.30
2018-02-05T16:44:28.529Z,8.87
2018-02-05T16:46:56.090Z,8.70
2018-02-05T16:49:23.642Z,9.40
2018-02-05T16:51:51.189Z,9.27
2018-02-05T16:54:18.830Z,8.70
2018-02-05T16:56:46.358Z,9.30
2018-02-05T16:59:13.888Z,9.07
2018-02-05T17:01:41.425Z,9.00
2018-02-05T17:04:09.050Z,9.43
2018-02-05T17:06:36.596Z,9.40
2018-02-05T17:09:04.491Z,8.73
2018-02-05T17:11:32.095Z,9.70
2018-02-05T17:13:59.625Z,9.60
2018-02-05T17:16:27.317Z,9.43
2018-02-05T17:18:54.856Z,9.53
2018-02-05T17:21:22.489Z,10.03
2018-02-05T17:23:50.056Z,9.30
2018-02-05T17:26:17.629Z,9.60
2018-02-05T17:28:45.217Z,9.43
2018-02-05T17:31:12.793Z,9.50
2018-02-05T17:33:40.338Z,9.70
2018-02-05T17:36:07.890Z,10.00
2018-02-05T17:38:35.440Z,9.60
2018-02-05T17:41:03.025Z,9.90
2018-02-05T17:43:30.566Z,10.17
2018-02-05T17:45:58.137Z,9.70
2018-02-05T17:48:25.766Z,10.30
2018-02-05T17:50:53.330Z,10.13
2018-02-05T17:53:20.875Z,10.40
2018-02-05T17:55:48.500Z,10.40
2018-02-05T17:58:16.071Z,10.00
2018-02-05T18:00:44.489Z,10.30
2018-02-05T18:03:12.320Z,9.90
2018-02-05T18:05:39.869Z,10.50
2018-02-05T18:08:07.424Z,9.97
2018-02-05T18:10:35.504Z,10.43
2018-02-05T18:13:03.495Z,9.90
2018-02-05T18:15:31.030Z,9.90
2018-02-05T18:17:58.609Z,10.13
2018-02-05T18:20:26.474Z,10.30
2018-02-05T18:22:54.038Z,10.87
2018-02-05T18:25:21.574Z,10.93
2018-02-05T18:27:49.230Z,11.13
2018-02-05T18:30:17.027Z,10.53
2018-02-05T18:32:44.570Z,10.53
2018-02-05T18:35:12.189Z,10.70
2018-02-05T18:37:39.735Z,10.27
2018-02-05T18:40:07.414Z,10.53
2018-02-05T18:42:35.244Z,10.70
2018-02-05T18:45:03.124Z,10.57
2018-02-05T18:47:30.698Z,10.50
2018-02-05T18:49:58.248Z,10.80
2018-02-05T18:52:25.818Z,10.83
2018-02-05T18:54:53.421Z,11.20
2018-02-05T18:57:21.211Z,11.50
2018-02-05T18:59:48.795Z,11.27
2018-02-05T19:02:21.248Z,11.27
2018-02-05T19:04:48.881Z,11.47
2018-02-05T19:07:16.394Z,10.63
2018-02-05T19:09:43.914Z,10.37
2018-02-05T19:12:11.474Z,11.17
2018-02-05T19:14:39.014Z,11.50
2018-02-05T19:17:06.625Z,12.47
2018-02-05T19:19:34.184Z,11.20
2018-02-05T19:22:01.747Z,11.97
2018-02-05T19:24:29.439Z,10.93
2018-02-05T19:26:57.092Z,11.70
2018-02-05T19:29:24.627Z,11.80
2018-02-05T19:31:52.258Z,11.93
2018-02-05T19:34:19.906Z,11.20
2018-02-05T19:36:47.502Z,11.83
2018-02-05T19:39:15.038Z,11.40
2018-02-05T19:41:42.619Z,12.33
2018-02-05T19:44:10.186Z,11.70
2018-02-05T19:46:37.792Z,11.60
2018-02-05T19:49:05.351Z,12.30
2018-02-05T19:51:32.899Z,12.33
2018-02-05T19:54:00.461Z,11.93
2018-02-05T19:56:28.022Z,12.67
2018-02-05T19:58:55.532Z,12.10
2018-02-05T20:01:23.324Z,11.97
2018-02-05T20:03:50.867Z,11.80
2018-02-05T20:06:18.390Z,11.67
2018-02-05T20:08:45.955Z,11.80
2018-02-05T20:11:13.771Z,12.00
2018-02-05T20:13:41.639Z,12.00
2018-02-05T20:16:09.210Z,11.53
2018-02-05T20:18:36.800Z,12.03
2018-02-05T20:21:04.363Z,12.17
2018-02-05T20:23:32.193Z,11.63
2018-02-05T20:25:59.768Z,12.90
2018-02-05T20:28:27.319Z,13.77
2018-02-05T20:30:54.869Z,12.67
2018-02-05T20:33:22.471Z,13.97
2018-02-05T20:35:50.018Z,12.50
2018-02-05T20:38:17.629Z,12.03
2018-02-05T20:40:45.621Z,12.97
2018-02-05T20:43:13.173Z,12.30
2018-02-05T20:45:40.782Z,12.20
2018-02-05T20:48:08.334Z,12.03
2018-02-05T20:50:35.931Z,13.83
2018-02-05T20:53:03.504Z,12.87
2018-02-05T20:55:31.291Z,11.97
2018-02-05T20:57:58.889Z,12.20
2018-02-05T21:00:26.470Z,12.63
2018-02-05T21:02:54.058Z,12.67
2018-02-05T21:05:21.620Z,12.00
2018-02-05T21:07:49.194Z,12.20
2018-02-05T21:10:16.825Z,12.13
2018-02-05T21:12:44.933Z,13.40
2018-02-05T21:15:12.898Z,12.13
2018-02-05T21:17:40.563Z,12.37
2018-02-05T21:20:08.181Z,12.67
2018-02-05T21:22:36.809Z,13.10
2018-02-05T21:25:04.824Z,14.00
2018-02-05T21:27:32.383Z,13.13
2018-02-05T21:29:59.910Z,13.73
2018-02-05T21:32:27.528Z,13.83
2018-02-05T21:34:55.074Z,12.47
2018-02-05T21:37:22.630Z,12.90
2018-02-05T21:39:50.632Z,12.70
2018-02-05T21:42:18.427Z,12.30
2018-02-05T21:44:46.177Z,12.63
2018-02-05T21:47:13.745Z,12.93
2018-02-05T21:49:41.289Z,13.40
2018-02-05T21:52:08.821Z,13.10
2018-02-05T21:54:36.456Z,13.00
2018-02-05T21:57:04.082Z,12.43
2018-02-05T21:59:31.930Z,12.60
2018-02-05T22:01:59.841Z,12.70
2018-02-05T22:04:27.447Z,12.70
2018-02-05T22:06:55.004Z,13.33
2018-02-05T22:09:22.593Z,13.47
2018-02-05T22:11:50.141Z,13.90
2018-02-05T22:14:18.060Z,12.47
2018-02-05T22:16:45.651Z,13.17
2018-02-05T22:19:13.289Z,13.37
2018-02-05T22:21:40.903Z,12.50
2018-02-05T22:24:08.472Z,13.47
2018-02-05T22:26:36.006Z,12.40
2018-02-05T22:29:03.632Z,13.10
2018-02-05T22:31:31.158Z,13.60
2018-02-05T22:33:58.805Z,12.53
2018-02-05T22:36:26.411Z,11.93
2018-02-05T22:38:53.932Z,12.30
2018-02-05T22:41:21.523Z,13.60
2018-02-05T22:43:49.063Z,13.30
2018-02-05T22:46:16.853Z,12.67
2018-02-05T22:48:44.476Z,12.47
2018-02-05T22:51:12.015Z,13.00
2018-02-05T22:53:39.593Z,12.70
2018-02-05T22:56:07.135Z,13.90
2018-02-05T22:58:34.781Z,12.43
2018-02-05T23:01:03.067Z,13.90
2018-02-05T23:03:30.622Z,13.17
2018-02-05T23:05:58.149Z,13.07
2018-02-05T23:08:25.899Z,13.20
2018-02-05T23:10:53.422Z,13.30
2018-02-05T23:13:21.034Z,13.10
2018-02-05T23:15:48.582Z,12.80
2018-02-05T23:18:16.106Z,13.50
2018-02-05T23:20:43.702Z,13.43
2018-02-05T23:23:11.295Z,13.53
2018-02-05T23:25:38.844Z,12.40
2018-02-05T23:28:06.443Z,13.37
2018-02-05T23:30:34.120Z,14.10
2018-02-05T23:33:01.686Z,13.10
2018-02-05T23:35:29.251Z,13.20
2018-02-05T23:37:56.852Z,14.70
2018-02-05T23:40:24.476Z,14.90
2018-02-05T23:42:52.502Z,18.73
2018-02-05T23:45:20.068Z,15.80
2018-02-05T23:47:47.624Z,14.43
2018-02-05T23:50:15.282Z,13.80
2018-02-05T23:52:42.822Z,15.13
2018-02-05T23:55:10.411Z,13.70
2018-02-05T23:57:37.999Z,13.30
